Latest Weather Observations for Macquarie Island

IDT60801

Issued at 3:11 pm EST Monday 27 May 2019 (issued every 10 minutes, with the page automatically refreshed every 10 minutes)

About weather observations | Map of weather stations | Latest weather observations for TAS | Other Formats
Station Details ID: 300004 Name: MACQUARIE ISLAND Lat: -54.50 Lon: 158.94 Height: 6.0 m
Data from the previous 72 hours. | See also: Recent months at Macquarie Island
Date/Time
EST
Temp
°C
App
Temp
°C
Dew
Point
°C
Rel
Hum
%
Delta-T
°C
Wind Press
QNH
hPa
Press
MSL
hPa
Rain since
9am
mm
Dir  Spd
km/h
Gust
km/h
Spd
kts
Gust
kts
27/03:00pm 4.9 -0.9 4.6 98 0.1 N 24 26 13 14 989.3 - 0.0
27/02:30pm 4.9 -0.5 4.5 97 0.2 NNW 22 24 12 13 989.2 - 0.0
27/02:00pm 5.0 0.0 4.6 97 0.2 NNW 20 22 11 12 988.9 - 0.0
27/01:30pm 5.4 0.5 5.0 97 0.2 NNW 20 24 11 13 989.1 - 0.0
27/01:00pm 5.4 0.1 5.0 97 0.2 NNW 22 26 12 14 989.2 - 0.0
27/12:30pm 5.7 1.0 5.3 97 0.2 NNW 19 24 10 13 989.2 - 0.0
27/12:00pm 5.4 0.1 5.0 97 0.2 NNW 22 26 12 14 989.3 989.6 0.0
27/11:30am 5.8 0.2 5.2 96 0.3 NNW 24 28 13 15 989.5 - 0.0
27/11:00am 5.8 0.1 5.1 95 0.3 NNW 24 28 13 15 989.7 - 0.0
27/10:30am 6.1 0.9 5.4 95 0.3 NNW 22 26 12 14 989.9 - 0.0
27/10:00am 5.6 -0.5 5.0 96 0.3 NNW 26 30 14 16 990.2 - 0.0
27/09:30am 5.6 -0.1 5.0 96 0.3 NNW 24 28 13 15 990.1 - 0.0
27/09:00am 5.9 1.1 5.5 97 0.2 NW 20 28 11 15 990.1 990.4 11.4
27/08:30am 6.1 2.3 5.7 97 0.2 NNE 15 19 8 10 990.1 - 11.4
27/08:00am 5.9 2.0 5.5 97 0.2 N 15 20 8 11 990.1 - 11.2
27/07:30am 5.6 3.4 5.2 97 0.2 NNE 6 9 3 5 990.0 - 11.2
27/07:00am 5.6 2.8 5.2 97 0.2 N 9 11 5 6 990.1 - 11.2
27/06:30am 5.6 2.4 5.2 97 0.2 NNW 11 15 6 8 990.2 - 11.0
27/06:00am 5.5 2.3 5.1 97 0.2 NNW 11 17 6 9 990.3 990.6 10.0
27/05:30am 5.3 2.4 4.9 97 0.2 NNW 9 11 5 6 990.3 - 10.0
27/05:00am 5.2 2.3 4.8 97 0.2 NW 9 13 5 7 990.3 - 10.0
27/04:30am 5.4 1.0 4.8 96 0.3 NNW 17 19 9 10 990.4 - 10.0
27/04:00am 5.9 2.0 5.3 96 0.3 NW 15 17 8 9 990.5 - 10.0
27/03:30am 5.6 2.4 5.0 96 0.3 WNW 11 13 6 7 990.6 - 10.0
27/03:00am 5.4 2.5 4.8 96 0.3 NW 9 11 5 6 990.9 991.2 10.0
27/02:30am 5.5 2.6 4.9 96 0.3 NW 9 11 5 6 991.0 - 10.0
27/02:00am 5.7 2.9 5.1 96 0.3 WNW 9 11 5 6 991.1 - 10.0
27/01:30am 5.8 2.2 5.2 96 0.3 WNW 13 15 7 8 991.3 - 10.0
27/01:00am 5.9 2.7 5.3 96 0.3 NNW 11 15 6 8 991.4 - 10.0
27/12:30am 6.0 2.9 5.4 96 0.3 N 11 13 6 7 991.5 - 10.0
27/12:00am 6.2 2.4 5.6 96 0.3 N 15 19 8 10 991.8 992.1 9.8
 
Date/Time
EST
Temp
°C
App
Temp
°C
Dew
Point
°C
Rel
Hum
%
Delta-T
°C
Wind Press
QNH
hPa
Press
MSL
hPa
Rain since
9am
mm
Dir  Spd
km/h
Gust
km/h
Spd
kts
Gust
kts
26/11:30pm 6.1 2.2 5.5 96 0.3 N 15 20 8 11 992.0 - 9.8
26/11:00pm 6.3 2.1 5.7 96 0.3 N 17 22 9 12 992.1 - 9.8
26/10:30pm 6.1 2.2 5.5 96 0.3 NNE 15 20 8 11 992.3 - 9.8
26/10:00pm 6.1 1.9 5.5 96 0.3 NNE 17 22 9 12 992.5 - 9.8
26/09:30pm 6.3 2.5 5.6 95 0.3 N 15 26 8 14 992.8 - 9.8
26/09:00pm 6.4 3.3 5.7 95 0.3 N 11 26 6 14 993.1 993.4 9.8
26/08:30pm 6.2 2.7 5.5 95 0.3 N 13 35 7 19 993.4 - 9.8
26/08:00pm 6.0 3.2 5.1 94 0.4 N 9 20 5 11 993.6 - 9.6
26/07:30pm 5.8 -0.3 4.8 93 0.4 E 26 41 14 22 993.8 - 9.6
26/07:24pm 5.8 -0.7 4.8 93 0.4 E 28 46 15 25 993.9 - 9.6
26/07:00pm 5.8 -1.1 4.4 91 0.6 E 30 44 16 24 994.2 - 9.6
26/06:30pm 5.6 -0.6 4.2 91 0.6 E 26 44 14 24 994.6 - 9.6
26/06:00pm 5.5 -1.1 4.2 91 0.6 E 28 54 15 29 995.1 995.4 9.6
26/05:30pm 5.2 -0.3 4.0 92 0.5 E 22 41 12 22 995.6 - 9.6
26/05:00pm 4.8 -2.3 3.5 91 0.5 ESE 30 41 16 22 996.5 - 8.8
26/04:42pm 4.4 -2.5 2.8 89 0.6 E 28 46 15 25 996.7 - 7.4
26/04:30pm 4.4 -2.5 2.8 89 0.6 E 28 43 15 23 996.9 - 6.6
26/04:00pm 4.3 -3.6 2.5 88 0.7 E 33 52 18 28 997.0 - 4.4
26/03:31pm 4.3 -3.5 1.8 84 1.0 E 32 50 17 27 997.5 - 1.6
26/03:30pm 4.3 -3.1 2.0 85 0.9 E 30 46 16 25 997.5 - 1.6
26/03:19pm 4.4 -2.6 1.9 84 1.0 E 28 48 15 26 997.6 - 1.0
26/03:00pm 4.5 -3.3 1.5 81 1.2 E 32 48 17 26 997.9 998.2 0.4
26/02:41pm 4.7 -2.4 1.2 78 1.4 E 28 46 15 25 997.8 - 0.0
26/02:30pm 4.8 -2.3 1.1 77 1.4 E 28 43 15 23 997.9 - 0.0
26/02:00pm 4.9 -3.2 0.9 75 1.6 ENE 33 44 18 24 998.5 - 0.0
26/01:30pm 5.0 -3.5 0.6 73 1.7 ENE 35 48 19 26 999.0 - 0.0
26/01:09pm 4.9 -2.3 0.9 75 1.6 E 28 46 15 25 999.3 - 0.0
26/01:00pm 4.9 -1.0 1.7 80 1.3 E 22 35 12 19 999.5 - 0.0
26/12:30pm 4.6 -1.3 2.0 83 1.0 E 22 39 12 21 999.7 - 0.0
26/12:00pm 4.2 -2.0 1.9 85 0.9 E 24 35 13 19 1000.2 1000.5 0.0
26/11:30am 4.0 -1.9 1.5 84 1.0 E 22 35 12 19 1000.7 - 0.0
26/11:00am 3.8 -1.8 1.4 84 0.9 E 20 37 11 20 1001.1 - 0.0
26/10:30am 3.8 -2.1 1.5 85 0.9 E 22 33 12 18 1001.5 - 0.0
26/10:00am 3.6 -2.4 1.3 85 0.9 E 22 32 12 17 1001.9 - 0.0
26/09:30am 3.4 -2.2 1.0 84 0.9 E 20 32 11 17 1002.3 - 0.0
26/09:00am 3.4 -2.3 0.8 83 1.0 E 20 30 11 16 1002.4 1002.7 0.6
26/08:30am 3.2 -2.3 0.3 81 1.1 E 19 24 10 13 1002.5 - 0.6
26/08:00am 3.1 -2.5 0.2 81 1.1 E 19 30 10 16 1002.7 - 0.6
26/07:30am 3.0 -2.3 -0.6 77 1.3 E 17 28 9 15 1002.7 - 0.6
26/07:00am 2.9 -2.0 -0.5 78 1.2 ESE 15 20 8 11 1002.8 - 0.6
26/06:30am 2.6 -2.0 -1.4 75 1.4 E 13 17 7 9 1002.9 - 0.6
26/06:00am 2.7 -1.9 -0.9 77 1.3 ESE 13 19 7 10 1002.9 1003.2 0.6
26/02:30am 1.8 -1.2 -1.8 77 1.3 SSW 4 6 2 3 1003.1 - 0.6
26/02:00am 2.1 -1.2 -1.3 78 1.2 SSW 6 9 3 5 1003.2 - 0.6
26/01:30am 2.1 -1.8 -1.2 79 1.2 SSW 9 11 5 6 1003.0 - 0.6
26/01:00am 2.0 -1.9 -1.2 79 1.1 SSW 9 11 5 6 1002.9 - 0.6
26/12:30am 2.1 -1.2 -1.0 80 1.1 S 6 9 3 5 1002.9 - 0.6
26/12:00am 2.2 -1.1 -0.9 80 1.1 SSW 6 11 3 6 1002.8 1003.1 0.6
 
Date/Time
EST
Temp
°C
App
Temp
°C
Dew
Point
°C
Rel
Hum
%
Delta-T
°C
Wind Press
QNH
hPa
Press
MSL
hPa
Rain since
9am
mm
Dir  Spd
km/h
Gust
km/h
Spd
kts
Gust
kts
25/11:30pm 1.7 -1.2 -1.0 82 1.0 SSW 4 7 2 4 1002.7 - 0.6
25/11:00pm 1.9 -1.3 -0.8 82 1.0 SW 6 9 3 5 1002.5 - 0.6
25/10:30pm 1.8 -2.0 -0.8 83 0.9 SSW 9 11 5 6 1002.3 - 0.6
25/10:00pm 1.8 -2.0 -0.8 83 0.9 SW 9 15 5 8 1002.3 - 0.6
25/09:30pm 1.6 -2.6 -0.8 84 0.9 SSW 11 15 6 8 1002.1 - 0.6
25/09:00pm 1.7 -2.4 -0.5 85 0.8 SSW 11 17 6 9 1001.9 1002.2 0.6
25/08:30pm 1.9 -1.8 -0.2 86 0.8 S 9 11 5 6 1001.5 - 0.6
25/08:00pm 2.0 -1.3 -0.1 86 0.8 S 7 11 4 6 1001.3 - 0.6
25/07:30pm 2.3 -1.0 0.4 87 0.7 S 7 13 4 7 1000.9 - 0.6
25/07:00pm 2.3 -0.7 0.5 88 0.7 SW 6 9 3 5 1000.7 - 0.6
25/06:30pm 2.5 -1.9 0.4 86 0.8 SSW 13 17 7 9 1000.3 - 0.2
25/06:00pm 2.9 -1.5 0.6 85 0.9 S 13 22 7 12 999.9 1000.2 0.0
25/05:30pm 2.8 -1.6 0.2 83 1.0 SSW 13 20 7 11 999.5 - 0.0
25/05:00pm 2.9 -0.4 0.0 81 1.1 WSW 7 11 4 6 999.2 - 0.0
25/04:30pm 2.9 -0.4 0.0 81 1.1 WSW 7 11 4 6 999.0 - 0.0
25/04:00pm 3.1 -0.9 0.3 82 1.0 WSW 11 15 6 8 998.8 - 0.0
25/03:30pm 3.1 -0.2 0.3 82 1.0 WSW 7 13 4 7 998.7 - 0.0
25/03:00pm 3.8 0.3 1.2 83 1.0 NW 9 13 5 7 998.4 998.7 0.0
25/02:30pm 4.6 1.1 1.5 80 1.2 NW 9 13 5 7 998.2 - 0.0
25/02:00pm 4.4 -0.7 0.6 76 1.5 W 17 26 9 14 998.1 - 0.0
25/01:30pm 5.3 1.3 0.5 71 1.9 W 11 15 6 8 997.9 - 0.0
25/01:00pm 5.7 1.8 0.9 71 1.9 W 11 17 6 9 997.7 - 0.0
25/12:30pm 5.9 2.0 1.4 73 1.8 W 11 15 6 8 997.7 - 0.0
25/12:00pm 5.6 1.2 0.2 68 2.1 W 13 17 7 9 998.0 998.3 0.0
25/11:30am 5.5 1.5 0.7 71 1.9 W 11 15 6 8 998.0 - 0.0
25/11:00am 6.4 4.9 3.2 80 1.3 CALM 0 7 0 4 998.0 - 0.0
25/10:30am 4.9 2.6 2.9 87 0.8 NNE 4 9 2 5 998.4 - 0.0
25/10:00am 4.3 2.8 3.1 92 0.5 CALM 0 0 0 0 998.3 - 0.0
25/09:30am 2.7 0.9 1.2 90 0.6 CALM 0 0 0 0 998.3 - 0.0
25/09:00am 2.8 -0.1 1.3 90 0.6 W 6 7 3 4 998.4 998.7 8.2
25/08:30am 2.7 0.9 1.1 89 0.6 CALM 0 0 0 0 998.9 - 8.2
25/08:00am 2.7 0.9 0.9 88 0.7 CALM 0 0 0 0 998.8 - 8.2
25/07:30am 2.6 0.4 1.0 89 0.6 WSW 2 7 1 4 998.9 - 8.2
25/07:00am 3.0 -0.1 1.4 89 0.6 W 7 13 4 7 998.8 - 8.2
25/06:30am 2.7 -0.9 0.9 88 0.7 W 9 13 5 7 999.1 - 8.0
25/06:00am 3.2 0.1 1.4 88 0.7 SSW 7 11 4 6 999.0 999.3 7.4
25/05:30am 3.2 -0.6 1.6 89 0.6 W 11 15 6 8 998.9 - 7.4
25/05:00am 3.4 -1.2 1.8 89 0.6 WNW 15 17 8 9 998.9 - 7.4
25/04:30am 3.7 -2.2 1.9 88 0.7 W 22 28 12 15 998.9 - 7.4
25/04:00am 3.9 -0.6 2.4 90 0.6 NW 15 19 8 10 999.1 - 7.4
25/03:30am 3.6 -0.9 2.3 91 0.5 W 15 20 8 11 999.2 - 7.0
25/03:00am 3.3 -3.7 1.7 89 0.6 W 28 35 15 19 999.4 999.7 6.4
25/02:30am 3.7 -2.2 1.6 86 0.8 SW 22 33 12 18 999.2 - 5.4
25/02:00am 4.5 -1.6 2.7 88 0.7 WNW 24 30 13 16 999.1 - 5.4
25/01:30am 4.5 -1.6 2.8 89 0.7 WNW 24 33 13 18 999.0 - 5.4
25/01:00am 5.0 -2.8 2.0 81 1.2 NW 32 46 17 25 998.8 - 4.8
25/12:30am 5.1 -1.1 2.1 81 1.2 WNW 24 28 13 15 998.9 - 4.8
25/12:00am 5.3 -1.2 2.8 84 1.0 WNW 26 30 14 16 998.9 999.2 4.8
 
Date/Time
EST
Temp
°C
App
Temp
°C
Dew
Point
°C
Rel
Hum
%
Delta-T
°C
Wind Press
QNH
hPa
Press
MSL
hPa
Rain since
9am
mm
Dir  Spd
km/h
Gust
km/h
Spd
kts
Gust
kts
24/11:30pm 5.1 -1.0 2.8 85 0.9 WNW 24 32 13 17 998.9 - 4.8
24/11:00pm 5.2 -1.7 2.7 84 1.0 WNW 28 32 15 17 998.9 - 4.8
24/10:30pm 4.7 -1.0 2.6 86 0.8 WNW 22 28 12 15 998.9 - 4.8
24/10:00pm 4.7 -1.9 2.2 84 1.0 WNW 26 33 14 18 998.7 - 4.8
24/09:30pm 5.1 -1.7 3.0 86 0.9 WNW 28 33 15 18 998.5 - 4.8
24/09:00pm 4.8 -3.1 2.5 85 0.9 W 33 46 18 25 998.4 998.7 4.8
24/08:52pm 5.1 -1.8 2.8 85 0.9 WNW 28 46 15 25 998.3 - 4.8
24/08:30pm 5.2 -1.5 3.4 88 0.7 NW 28 39 15 21 998.1 - 4.8
24/08:00pm 4.8 -3.7 3.0 88 0.7 NW 37 46 20 25 998.1 - 4.8
24/07:30pm 4.8 -3.7 3.0 88 0.7 NW 37 46 20 25 998.2 - 4.6
24/07:00pm 4.7 -3.8 3.0 89 0.7 NW 37 43 20 23 998.2 - 4.6
24/06:30pm 4.8 -2.0 3.0 88 0.7 WNW 28 33 15 18 997.9 - 4.6
24/06:00pm 3.9 -4.4 2.4 90 0.6 W 35 46 19 25 997.8 998.1 4.6
24/05:46pm 4.0 -3.7 2.5 90 0.6 WNW 32 50 17 27 998.1 - 4.2
24/05:30pm 4.4 -3.2 2.8 89 0.6 W 32 39 17 21 997.8 - 3.6
24/05:19pm 5.3 -1.4 3.6 89 0.7 WNW 28 48 15 26 997.7 - 3.6
24/05:00pm 4.4 -3.8 2.8 89 0.6 NW 35 50 19 27 997.5 - 3.4
24/04:52pm 5.5 -1.9 3.8 89 0.7 NW 32 50 17 27 997.5 - 2.8
24/04:30pm 5.1 -3.4 3.4 89 0.7 NNW 37 46 20 25 997.4 - 2.6
24/04:00pm 4.7 -2.4 3.4 91 0.5 NNW 30 33 16 18 997.6 - 2.6
24/03:30pm 4.5 -2.3 3.2 91 0.5 NW 28 33 15 18 997.6 - 2.0
24/03:21pm 4.5 -2.3 3.3 92 0.5 NW 28 32 15 17 997.6 - 2.0

Other formats

Comma delimited format used in spreadsheet applications
http://www.bom.gov.au/fwo/IDT60801/IDT60801.94998.axf

JavaScript Object Notation format (JSON) in row-major order
http://www.bom.gov.au/fwo/IDT60801/IDT60801.94998.json

Data quality

Most of these data are generated automatically and are frequently updated. Quality checks on data are not normally performed. It is possible for incorrect values to appear. Refer to information at About Latest Weather Observations and please check the disclaimer before using these data.